createdAt,value
2022-12-31T00:00:18.459Z,143.30
2022-12-31T00:03:12.414Z,138.30
2022-12-31T00:05:46.732Z,144.10
2022-12-31T00:08:19.415Z,147.60
2022-12-31T00:10:52.137Z,144.20
2022-12-31T00:13:25.767Z,142.30
2022-12-31T00:16:12.300Z,142.90
2022-12-31T00:18:49.318Z,149.70
2022-12-31T00:21:23.549Z,149.30
2022-12-31T00:23:56.201Z,147.40
2022-12-31T00:26:31.175Z,160.10
2022-12-31T00:29:05.019Z,149.30
2022-12-31T00:31:40.310Z,148.00
2022-12-31T00:34:13.986Z,143.90
2022-12-31T00:36:47.703Z,145.30
2022-12-31T00:39:20.455Z,137.80
2022-12-31T00:41:52.555Z,140.40
2022-12-31T00:44:24.816Z,141.00
2022-12-31T00:46:59.034Z,136.40
2022-12-31T00:49:33.923Z,142.50
2022-12-31T00:52:08.315Z,140.60
2022-12-31T00:54:40.875Z,138.50
2022-12-31T00:57:14.108Z,133.30
2022-12-31T00:59:47.094Z,130.80
2022-12-31T01:02:21.217Z,131.30
2022-12-31T01:04:57.050Z,137.90
2022-12-31T01:07:29.331Z,137.20
2022-12-31T01:10:01.230Z,132.60
2022-12-31T01:12:37.026Z,130.40
2022-12-31T01:15:11.288Z,133.20
2022-12-31T01:17:44.966Z,138.00
2022-12-31T01:20:19.090Z,138.80
2022-12-31T01:22:52.290Z,145.20
2022-12-31T01:25:25.008Z,186.50
2022-12-31T01:27:56.973Z,176.70
2022-12-31T01:30:28.789Z,177.00
2022-12-31T01:33:03.128Z,178.70
2022-12-31T01:35:37.248Z,146.40
2022-12-31T01:38:12.013Z,137.40
2022-12-31T01:40:46.918Z,145.90
2022-12-31T01:43:20.812Z,140.10
2022-12-31T01:45:54.756Z,142.80
2022-12-31T01:48:28.550Z,134.50
2022-12-31T01:51:00.828Z,138.60
2022-12-31T01:53:40.927Z,135.90
2022-12-31T01:56:14.880Z,132.50
2022-12-31T01:58:50.982Z,134.60
2022-12-31T02:01:31.186Z,137.30
2022-12-31T02:04:09.457Z,131.90
2022-12-31T02:06:45.575Z,125.90
2022-12-31T02:09:19.577Z,124.10
2022-12-31T02:11:54.280Z,128.80
2022-12-31T02:14:30.084Z,127.90
2022-12-31T02:17:09.641Z,134.30
2022-12-31T02:20:09.592Z,134.80
2022-12-31T02:23:04.942Z,125.10
2022-12-31T02:25:54.430Z,128.30
2022-12-31T02:28:38.678Z,124.30
2022-12-31T02:31:16.808Z,124.20
2022-12-31T02:33:56.538Z,123.90
2022-12-31T02:36:31.294Z,120.20
2022-12-31T02:39:06.708Z,118.40
2022-12-31T02:41:52.635Z,121.00
2022-12-31T02:44:27.713Z,119.00
2022-12-31T02:47:12.561Z,123.50
2022-12-31T02:49:59.359Z,121.70
2022-12-31T02:52:39.120Z,119.80
2022-12-31T02:55:16.582Z,115.10
2022-12-31T02:57:52.462Z,112.70
2022-12-31T03:00:44.436Z,109.10
2022-12-31T03:03:18.679Z,107.90
2022-12-31T03:05:53.545Z,116.30
2022-12-31T03:08:29.358Z,128.60
2022-12-31T03:11:21.439Z,138.80
2022-12-31T03:13:53.407Z,118.90
2022-12-31T03:16:26.168Z,129.80
2022-12-31T03:19:19.128Z,118.90
2022-12-31T03:22:13.020Z,124.60
2022-12-31T03:25:06.621Z,97.00
2022-12-31T03:27:43.834Z,85.20
2022-12-31T03:30:18.985Z,85.00
2022-12-31T03:32:51.555Z,85.30
2022-12-31T03:35:25.307Z,71.50
2022-12-31T03:38:00.148Z,74.70
2022-12-31T03:40:41.672Z,71.80
2022-12-31T03:43:14.034Z,73.50
2022-12-31T03:45:47.821Z,63.70
2022-12-31T03:48:20.998Z,69.50
2022-12-31T03:50:59.544Z,52.90
2022-12-31T03:53:32.264Z,53.00
2022-12-31T03:56:07.300Z,51.40
2022-12-31T03:58:39.906Z,42.60
2022-12-31T04:01:17.561Z,38.30
2022-12-31T04:03:49.679Z,37.00
2022-12-31T04:06:22.443Z,33.80
2022-12-31T04:08:57.198Z,33.00
2022-12-31T04:11:30.066Z,29.30
2022-12-31T04:14:04.783Z,28.40
2022-12-31T04:16:39.987Z,27.20
2022-12-31T04:19:16.509Z,23.80
2022-12-31T04:21:50.526Z,23.30
2022-12-31T04:24:27.207Z,22.90
2022-12-31T04:27:07.013Z,37.60
2022-12-31T04:29:40.038Z,19.60
2022-12-31T04:32:15.469Z,20.70
2022-12-31T04:34:48.495Z,20.00
2022-12-31T04:37:22.277Z,19.40
2022-12-31T04:39:55.436Z,40.00
2022-12-31T04:42:30.707Z,19.30
2022-12-31T04:45:02.680Z,23.40
2022-12-31T04:47:35.636Z,16.90
2022-12-31T04:50:09.815Z,16.50
2022-12-31T04:52:44.715Z,24.40
2022-12-31T04:55:20.195Z,18.80
2022-12-31T04:57:53.703Z,17.40
2022-12-31T05:00:25.682Z,18.30
2022-12-31T05:02:57.609Z,19.10
2022-12-31T05:05:31.368Z,20.00
2022-12-31T05:08:05.528Z,19.50
2022-12-31T05:10:37.679Z,21.30
2022-12-31T05:13:10.528Z,17.30
2022-12-31T05:15:46.712Z,18.00
2022-12-31T05:18:20.186Z,20.70
2022-12-31T05:20:56.692Z,18.40
2022-12-31T05:23:32.535Z,19.00
2022-12-31T05:26:06.498Z,18.20
2022-12-31T05:28:40.570Z,20.60
2022-12-31T05:31:15.621Z,20.20
2022-12-31T05:33:50.659Z,20.00
2022-12-31T05:36:24.114Z,15.40
2022-12-31T05:38:56.934Z,15.90
2022-12-31T05:41:31.145Z,15.00
2022-12-31T05:44:05.734Z,14.00
2022-12-31T05:46:38.927Z,14.10
2022-12-31T05:49:11.913Z,14.20
2022-12-31T05:51:44.985Z,12.80
2022-12-31T05:54:18.974Z,13.00
2022-12-31T05:56:51.513Z,12.50
2022-12-31T05:59:24.798Z,13.90
2022-12-31T06:01:59.025Z,15.50
2022-12-31T06:04:35.121Z,14.40
2022-12-31T06:07:10.632Z,15.90
2022-12-31T06:09:43.567Z,15.40
2022-12-31T06:12:19.680Z,17.20
2022-12-31T06:14:52.226Z,18.50
2022-12-31T06:17:27.070Z,18.90
2022-12-31T06:20:04.841Z,16.60
2022-12-31T06:22:40.253Z,19.00
2022-12-31T06:25:15.956Z,18.00
2022-12-31T06:27:49.640Z,16.40
2022-12-31T06:30:23.684Z,17.10
2022-12-31T06:32:57.296Z,15.70
2022-12-31T06:35:30.851Z,18.10
2022-12-31T06:38:04.737Z,37.10
2022-12-31T06:40:40.470Z,39.30
2022-12-31T06:43:15.693Z,16.30
2022-12-31T06:45:50.799Z,15.40
2022-12-31T06:48:26.608Z,17.60
2022-12-31T06:51:13.401Z,16.00
2022-12-31T06:53:50.935Z,13.50
2022-12-31T06:56:33.140Z,16.40
2022-12-31T06:59:11.076Z,13.10
2022-12-31T07:01:53.545Z,14.00
2022-12-31T07:04:50.400Z,14.70
2022-12-31T07:07:30.362Z,13.20
2022-12-31T07:10:11.923Z,16.80
2022-12-31T07:12:57.731Z,14.30
2022-12-31T07:15:45.587Z,13.20
2022-12-31T07:18:25.929Z,12.40
2022-12-31T07:20:59.023Z,12.90
2022-12-31T07:23:33.750Z,12.90
2022-12-31T07:26:12.143Z,13.30
2022-12-31T07:28:57.678Z,12.20
2022-12-31T07:31:43.468Z,12.70
2022-12-31T07:34:23.677Z,11.70
2022-12-31T07:37:04.150Z,11.50
2022-12-31T07:39:45.325Z,11.40
2022-12-31T07:42:23.930Z,12.20
2022-12-31T07:45:05.375Z,10.20
2022-12-31T07:47:39.203Z,10.50
2022-12-31T07:50:18.321Z,9.40
2022-12-31T07:52:54.315Z,10.30
2022-12-31T07:55:28.897Z,8.70
2022-12-31T07:58:07.658Z,8.10
2022-12-31T08:00:41.521Z,8.50
2022-12-31T08:03:26.222Z,8.10
2022-12-31T08:06:10.302Z,8.50
2022-12-31T08:08:51.671Z,8.80
2022-12-31T08:11:29.992Z,8.10
2022-12-31T08:14:05.353Z,8.00
2022-12-31T08:16:39.604Z,7.70
2022-12-31T08:19:18.659Z,7.80
2022-12-31T08:21:59.910Z,8.50
2022-12-31T08:24:40.708Z,7.30
2022-12-31T08:27:22.360Z,9.00
2022-12-31T08:30:05.568Z,7.80
2022-12-31T08:32:45.085Z,7.60
2022-12-31T08:35:28.744Z,7.40
2022-12-31T08:38:09.257Z,9.90
2022-12-31T08:40:51.294Z,7.80
2022-12-31T08:43:38.856Z,7.70
2022-12-31T08:46:20.696Z,9.70
2022-12-31T08:48:55.047Z,21.80
2022-12-31T08:51:28.717Z,10.50
2022-12-31T08:54:04.100Z,8.80
2022-12-31T08:56:48.839Z,8.00
2022-12-31T08:59:37.038Z,7.30
2022-12-31T09:02:35.384Z,7.80
2022-12-31T09:05:20.421Z,7.60
2022-12-31T09:08:00.207Z,5.90
2022-12-31T09:10:37.998Z,7.00
2022-12-31T09:13:20.644Z,11.20
2022-12-31T09:15:58.719Z,9.20
2022-12-31T09:18:34.334Z,7.50
2022-12-31T09:21:09.080Z,9.40
2022-12-31T09:23:43.376Z,12.40
2022-12-31T09:26:31.290Z,11.60
2022-12-31T09:29:10.728Z,7.50
2022-12-31T09:31:48.357Z,8.30
2022-12-31T09:34:27.008Z,6.30
2022-12-31T09:37:06.960Z,8.60
2022-12-31T09:39:42.474Z,8.60
2022-12-31T09:42:57.262Z,8.90
2022-12-31T09:45:54.005Z,11.60
2022-12-31T09:48:57.311Z,8.40
2022-12-31T09:51:34.110Z,9.00
2022-12-31T09:54:44.216Z,10.10
2022-12-31T09:57:33.006Z,7.10
2022-12-31T10:00:11.056Z,8.20
2022-12-31T10:02:53.994Z,7.60
2022-12-31T10:05:41.372Z,9.10
2022-12-31T10:08:24.583Z,12.00
2022-12-31T10:11:03.412Z,8.50
2022-12-31T10:13:45.300Z,17.20
2022-12-31T10:16:38.102Z,7.60
2022-12-31T10:19:40.683Z,6.90
2022-12-31T10:22:36.100Z,6.60
2022-12-31T10:25:38.381Z,7.90
2022-12-31T10:28:26.001Z,6.10
2022-12-31T10:31:16.812Z,6.60
2022-12-31T10:34:02.301Z,5.00
2022-12-31T10:36:45.158Z,6.80
2022-12-31T10:39:28.625Z,6.10
2022-12-31T10:42:22.182Z,7.80
2022-12-31T10:45:38.492Z,5.90
2022-12-31T10:48:31.200Z,9.10
2022-12-31T10:51:19.285Z,5.50
2022-12-31T10:54:16.824Z,5.80
2022-12-31T10:57:16.460Z,6.10
2022-12-31T11:00:17.546Z,6.40
2022-12-31T11:03:29.225Z,5.70
2022-12-31T11:06:34.730Z,5.70
2022-12-31T11:09:37.905Z,4.70
2022-12-31T11:12:22.771Z,5.30
2022-12-31T11:15:14.712Z,8.00
2022-12-31T11:17:58.293Z,5.30
2022-12-31T11:21:07.532Z,5.40
2022-12-31T11:23:43.714Z,5.30
2022-12-31T11:26:25.984Z,6.20
2022-12-31T11:29:08.703Z,6.50
2022-12-31T11:31:58.545Z,6.30
2022-12-31T11:34:50.465Z,7.00
2022-12-31T11:37:32.863Z,6.50
2022-12-31T11:40:23.607Z,7.40
2022-12-31T11:43:00.229Z,5.60
2022-12-31T11:46:00.584Z,5.80
2022-12-31T11:48:36.120Z,5.80
2022-12-31T11:51:31.066Z,5.50
2022-12-31T11:54:34.520Z,5.50
2022-12-31T11:57:25.482Z,4.60
2022-12-31T12:00:06.047Z,5.90
2022-12-31T12:02:44.407Z,5.70
2022-12-31T12:05:22.449Z,6.10
2022-12-31T12:07:57.316Z,10.20
2022-12-31T12:10:36.536Z,8.70
2022-12-31T12:13:20.225Z,9.70
2022-12-31T12:15:54.651Z,8.70
2022-12-31T12:18:36.557Z,8.50
2022-12-31T12:21:13.194Z,9.80
2022-12-31T12:23:59.397Z,6.90
2022-12-31T12:26:37.671Z,6.50
2022-12-31T12:29:18.141Z,8.50
2022-12-31T12:32:03.105Z,7.80
2022-12-31T12:34:36.707Z,6.60
2022-12-31T12:37:18.068Z,7.10
2022-12-31T12:39:59.437Z,8.80
2022-12-31T12:42:36.642Z,7.20
2022-12-31T12:45:18.272Z,5.60
2022-12-31T12:47:52.764Z,7.60
2022-12-31T12:50:34.685Z,6.90
2022-12-31T12:53:15.859Z,7.60
2022-12-31T12:56:00.720Z,6.90
2022-12-31T12:58:47.568Z,7.00
2022-12-31T13:01:28.982Z,6.70
2022-12-31T13:04:34.444Z,8.00
2022-12-31T13:07:20.362Z,7.60
2022-12-31T13:10:05.925Z,8.40
2022-12-31T13:13:21.979Z,7.60
2022-12-31T13:15:49.268Z,7.50
2022-12-31T13:18:35.675Z,8.20
2022-12-31T13:21:18.424Z,8.10
2022-12-31T13:23:53.462Z,7.50
2022-12-31T13:26:29.096Z,7.00
2022-12-31T13:29:03.184Z,10.40
2022-12-31T13:31:44.228Z,7.80
2022-12-31T13:34:20.729Z,8.70
2022-12-31T13:36:57.473Z,8.40
2022-12-31T13:39:35.187Z,9.10
2022-12-31T13:42:12.984Z,9.30
2022-12-31T13:44:50.447Z,8.20
2022-12-31T13:47:32.185Z,9.20
2022-12-31T13:50:15.105Z,10.30
2022-12-31T13:52:53.157Z,8.50
2022-12-31T13:55:29.966Z,9.30
2022-12-31T13:58:10.551Z,8.20
2022-12-31T14:00:49.063Z,8.40
2022-12-31T14:03:27.130Z,17.10
2022-12-31T14:06:06.727Z,23.80
2022-12-31T14:08:43.615Z,11.20
2022-12-31T14:11:28.262Z,8.30
2022-12-31T14:14:13.580Z,10.90
2022-12-31T14:16:52.995Z,25.90
2022-12-31T14:19:41.034Z,12.10
2022-12-31T14:22:18.415Z,9.40
2022-12-31T14:24:54.901Z,10.10
2022-12-31T14:27:30.829Z,14.80
2022-12-31T14:30:06.532Z,14.00
2022-12-31T14:33:03.023Z,13.30
2022-12-31T14:35:49.432Z,12.30
2022-12-31T14:38:29.507Z,12.90
2022-12-31T14:41:13.754Z,12.00
2022-12-31T14:43:52.691Z,8.40
2022-12-31T14:46:32.893Z,11.00
2022-12-31T14:49:18.182Z,11.10
2022-12-31T14:51:54.202Z,14.70
2022-12-31T14:54:36.451Z,21.50
2022-12-31T14:57:25.417Z,8.80
2022-12-31T14:59:59.835Z,10.60
2022-12-31T15:02:35.832Z,9.90
2022-12-31T15:05:18.266Z,10.70
2022-12-31T15:07:58.802Z,10.60
2022-12-31T15:10:43.212Z,12.40
2022-12-31T15:13:26.522Z,10.20
2022-12-31T15:16:22.509Z,11.00
2022-12-31T15:19:21.067Z,11.00
2022-12-31T15:22:03.971Z,21.80
2022-12-31T15:24:36.727Z,56.60
2022-12-31T15:27:31.161Z,13.40
2022-12-31T15:30:08.152Z,16.70
2022-12-31T15:32:43.135Z,19.10
2022-12-31T15:35:31.273Z,15.20
2022-12-31T15:38:20.359Z,11.90
2022-12-31T15:40:55.366Z,11.30
2022-12-31T15:43:34.044Z,11.70
2022-12-31T15:46:16.921Z,11.30
2022-12-31T15:48:55.450Z,11.90
2022-12-31T15:51:33.842Z,13.10
2022-12-31T15:54:07.923Z,11.00
2022-12-31T15:56:47.516Z,13.30
2022-12-31T15:59:21.275Z,19.70
2022-12-31T16:01:55.352Z,24.20
2022-12-31T16:04:34.446Z,14.80
2022-12-31T16:07:08.343Z,24.90
2022-12-31T16:09:41.168Z,14.70
2022-12-31T16:12:23.079Z,18.80
2022-12-31T16:15:00.086Z,14.00
2022-12-31T16:17:34.466Z,13.50
2022-12-31T16:20:25.548Z,14.40
2022-12-31T16:23:00.124Z,14.20
2022-12-31T16:25:38.423Z,14.20
2022-12-31T16:28:16.157Z,46.10
2022-12-31T16:31:01.675Z,15.50
2022-12-31T16:33:35.701Z,15.60
2022-12-31T16:36:17.257Z,14.70
2022-12-31T16:38:49.925Z,19.50
2022-12-31T16:41:24.455Z,16.10
2022-12-31T16:43:59.149Z,13.00
2022-12-31T16:46:34.674Z,15.60
2022-12-31T16:49:14.290Z,14.40
2022-12-31T16:51:48.112Z,16.40
2022-12-31T16:54:30.758Z,36.90
2022-12-31T16:57:05.771Z,20.60
2022-12-31T16:59:43.397Z,22.50
2022-12-31T17:02:21.514Z,15.40
2022-12-31T17:04:56.281Z,28.00
2022-12-31T17:07:38.753Z,25.80
2022-12-31T17:10:22.952Z,33.50
2022-12-31T17:13:27.806Z,29.60
2022-12-31T17:15:51.931Z,18.90
2022-12-31T17:18:27.355Z,28.30
2022-12-31T17:21:09.443Z,25.80
2022-12-31T17:23:45.919Z,17.80
2022-12-31T17:26:26.465Z,22.20
2022-12-31T17:29:01.389Z,25.20
2022-12-31T17:31:37.796Z,27.90
2022-12-31T17:34:27.829Z,19.20
2022-12-31T17:37:26.815Z,26.40
2022-12-31T17:40:40.903Z,21.80
2022-12-31T17:42:58.862Z,21.50
2022-12-31T17:45:32.240Z,25.80
2022-12-31T17:48:08.699Z,37.50
2022-12-31T17:50:49.947Z,16.70
2022-12-31T17:53:24.012Z,25.60
2022-12-31T17:56:01.623Z,15.50
2022-12-31T17:58:36.826Z,33.10
2022-12-31T18:01:10.928Z,18.00
2022-12-31T18:03:45.356Z,23.10
2022-12-31T18:06:23.231Z,25.20
2022-12-31T18:08:59.316Z,17.00
2022-12-31T18:11:36.353Z,16.90
2022-12-31T18:14:11.796Z,16.20
2022-12-31T18:16:46.318Z,20.20
2022-12-31T18:19:54.305Z,22.80
2022-12-31T18:22:19.842Z,20.00
2022-12-31T18:24:55.308Z,14.70
2022-12-31T18:27:32.321Z,21.00
2022-12-31T18:30:08.540Z,17.80
2022-12-31T18:32:42.681Z,17.60
2022-12-31T18:36:07.177Z,16.60
2022-12-31T18:38:16.233Z,17.40
2022-12-31T18:40:55.321Z,17.00
2022-12-31T18:43:29.591Z,20.40
2022-12-31T18:46:03.272Z,14.10
2022-12-31T18:48:35.504Z,12.00
2022-12-31T18:51:09.104Z,12.50
2022-12-31T18:53:41.674Z,15.10
2022-12-31T18:56:17.218Z,12.50
2022-12-31T18:58:51.040Z,18.30
2022-12-31T19:01:30.751Z,12.40
2022-12-31T19:04:04.367Z,14.90
2022-12-31T19:06:39.183Z,16.10
2022-12-31T19:09:43.357Z,16.00
2022-12-31T19:12:13.179Z,13.90
2022-12-31T19:14:47.318Z,14.10
2022-12-31T19:17:22.738Z,12.60
2022-12-31T19:19:55.303Z,12.30
2022-12-31T19:22:29.956Z,11.70
2022-12-31T19:25:04.735Z,12.70
2022-12-31T19:27:37.775Z,13.80
2022-12-31T19:30:18.270Z,10.30
2022-12-31T19:32:55.400Z,10.50
2022-12-31T19:35:28.594Z,13.90
2022-12-31T19:45:22.551Z,11.50
2022-12-31T19:47:56.938Z,56.60
2022-12-31T19:50:36.989Z,24.20
2022-12-31T19:53:17.973Z,15.70
2022-12-31T19:55:53.304Z,16.80
2022-12-31T19:58:36.865Z,14.80
2022-12-31T20:01:10.297Z,14.70
2022-12-31T20:03:45.016Z,15.60
2022-12-31T20:06:19.465Z,16.60
2022-12-31T20:08:52.498Z,12.70
2022-12-31T20:11:26.741Z,11.40
2022-12-31T20:14:00.900Z,13.00
2022-12-31T20:16:34.927Z,17.00
2022-12-31T20:19:08.594Z,31.10
2022-12-31T20:21:43.348Z,18.00
2022-12-31T20:24:16.960Z,14.30
2022-12-31T20:26:49.139Z,14.30
2022-12-31T20:29:22.157Z,12.90
2022-12-31T20:31:58.712Z,15.90
2022-12-31T20:34:32.538Z,14.40
2022-12-31T20:37:05.589Z,13.90
2022-12-31T20:39:39.627Z,16.70
2022-12-31T20:42:12.418Z,14.60
2022-12-31T20:44:45.290Z,12.80
2022-12-31T20:47:20.880Z,11.70
2022-12-31T20:50:12.651Z,25.00
2022-12-31T20:52:46.780Z,15.30
2022-12-31T20:55:19.690Z,14.00
2022-12-31T20:57:57.117Z,11.10
2022-12-31T21:00:30.077Z,11.50
2022-12-31T21:03:14.283Z,11.20
2022-12-31T21:05:58.326Z,18.10
2022-12-31T21:08:35.066Z,12.70
2022-12-31T21:11:30.407Z,15.30
2022-12-31T21:14:05.954Z,14.30
2022-12-31T21:16:39.243Z,21.80
2022-12-31T21:19:16.399Z,15.80
2022-12-31T21:21:49.900Z,14.00
2022-12-31T21:24:24.187Z,12.80
2022-12-31T21:26:58.713Z,15.20
2022-12-31T21:29:34.937Z,16.40
2022-12-31T21:32:08.610Z,17.80
2022-12-31T21:34:43.259Z,19.20
2022-12-31T21:37:15.369Z,17.30
2022-12-31T21:39:49.891Z,18.20
2022-12-31T21:42:25.172Z,19.60
2022-12-31T21:44:58.258Z,17.50
2022-12-31T21:47:49.355Z,19.00
2022-12-31T21:50:23.080Z,33.00
2022-12-31T21:52:56.070Z,18.70
2022-12-31T21:55:49.437Z,18.00
2022-12-31T21:58:27.770Z,16.90
2022-12-31T22:01:34.256Z,17.20
2022-12-31T22:04:28.115Z,14.60
2022-12-31T22:07:00.723Z,13.90
2022-12-31T22:09:36.955Z,14.30
2022-12-31T22:12:10.392Z,19.40
2022-12-31T22:15:15.889Z,15.20
2022-12-31T22:17:37.427Z,17.10
2022-12-31T22:20:28.507Z,14.90
2022-12-31T22:23:05.298Z,14.70
2022-12-31T22:25:38.783Z,13.20
2022-12-31T22:28:37.543Z,14.50
2022-12-31T22:31:04.315Z,18.40
2022-12-31T22:33:37.458Z,16.20
2022-12-31T22:36:14.050Z,15.60
2022-12-31T22:38:47.131Z,15.20
2022-12-31T22:41:21.932Z,14.40
2022-12-31T22:44:02.695Z,14.70
2022-12-31T22:46:38.437Z,14.00
2022-12-31T22:49:13.247Z,20.00
2022-12-31T22:51:57.670Z,18.00
2022-12-31T22:54:33.145Z,14.20
2022-12-31T22:57:08.003Z,22.50
2022-12-31T22:59:41.652Z,15.50
2022-12-31T23:02:13.649Z,19.70
2022-12-31T23:04:50.233Z,38.50
2022-12-31T23:07:23.148Z,54.80
2022-12-31T23:10:13.793Z,73.00
2022-12-31T23:12:47.591Z,56.70
2022-12-31T23:15:39.397Z,50.70
2022-12-31T23:18:33.527Z,53.70
2022-12-31T23:21:30.418Z,44.80
2022-12-31T23:24:04.614Z,38.70
2022-12-31T23:26:38.183Z,30.10
2022-12-31T23:29:12.415Z,28.20
2022-12-31T23:31:49.166Z,27.40
2022-12-31T23:34:23.920Z,27.30
